Kumano Maru — JD2155 — position and weather

sailwx.info

Track history (hours):
 
Tides and Currents Weather Stations Pressure Air Temp Water Temp Dewpoint Dewpoint Depression Visibility Wind Speed Wind Dir Waves Ship Positions

Kumano Maru

Last reported at 2018-Feb-18 23:53 UTC. Time now 2018-Feb-19 00:14 UTC.
Position N 33°15' E 131°52'.

Length 65 m; draft 4 m.

MMSI: 431402029.

Date/timePositionNaut miles runAvg speedWind from/ knotsBaromVisibWave heightAir tempDewpointWater temp
2018-Feb-18 23:53N 33°15' E 131°52'0 0.0
2018-Feb-18 23:30N 33°15' E 131°52'0 0.0
2018-Feb-18 21:53N 33°15' E 131°52'3 6.8
2018-Feb-18 21:27N 33°18' E 131°50'510.7
2018-Feb-18 21:00N 33°20' E 131°46'4 6.3
2018-Feb-18 20:25N 33°23' E 131°42'0 0.1
2018-Feb-18 20:00N 33°23' E 131°42'0 0.0
2018-Feb-18 19:30N 33°23' E 131°42'0 0.0
2018-Feb-18 19:00N 33°23' E 131°42'0 0.0
2018-Feb-18 18:30N 33°23' E 131°42'0 0.0
2018-Feb-18 18:00N 33°23' E 131°42'0 0.0
2018-Feb-18 17:30N 33°23' E 131°42'0 0.1
2018-Feb-18 17:00N 33°23' E 131°42'0 0.0
2018-Feb-18 16:12N 33°23' E 131°42'0 0.0
2018-Feb-18 15:56N 33°23' E 131°42'0 0.0
2018-Feb-18 15:23N 33°23' E 131°42'0 0.0
2018-Feb-18 14:59N 33°23' E 131°42'0 0.0
2018-Feb-18 14:30N 33°23' E 131°42'0 0.0
2018-Feb-18 13:55N 33°23' E 131°42'0 0.0
2018-Feb-18 13:30N 33°23' E 131°42'0 0.1
2018-Feb-18 13:00N 33°23' E 131°42'0 0.1
2018-Feb-18 12:30N 33°23' E 131°42'0 0.0
2018-Feb-18 12:00N 33°23' E 131°42'0 0.1
2018-Feb-18 11:30N 33°23' E 131°42'0 0.0
2018-Feb-18 11:00N 33°23' E 131°42'0 0.0
2018-Feb-18 10:30N 33°23' E 131°42'0 0.0
2018-Feb-18 10:00N 33°23' E 131°42'0 0.0
2018-Feb-18 09:30N 33°23' E 131°42'0 0.0
2018-Feb-18 09:00N 33°23' E 131°42'0 0.0
2018-Feb-18 08:30N 33°23' E 131°42'0 0.0
2018-Feb-18 08:00N 33°23' E 131°42'7 9.6
2018-Feb-18 07:16N 33°29' E 131°46'412.2
2018-Feb-18 06:57N 33°33' E 131°46'512.4
2018-Feb-18 06:30N 33°38' E 131°44'612.8
2018-Feb-18 06:00N 33°42' E 131°38'612.0
2018-Feb-18 05:30N 33°45' E 131°31'612.1
2018-Feb-18 05:00N 33°48' E 131°25'611.8
2018-Feb-18 04:30N 33°51' E 131°19'611.4
2018-Feb-18 04:00N 33°55' E 131°13'2 3.7
2018-Feb-18 03:29N 33°56' E 131°14'1 1.1
2018-Feb-18 03:00N 33°57' E 131°14'0 0.1
2018-Feb-18 02:30N 33°57' E 131°14'0 0.0
2018-Feb-18 01:59N 33°57' E 131°14'0 0.0
2018-Feb-18 01:30N 33°57' E 131°14'0 0.0
2018-Feb-18 01:00N 33°57' E 131°14'0 0.0
2018-Feb-18 00:30N 33°57' E 131°14'0 0.0
2018-Feb-18 00:00N 33°57' E 131°14'0 0.0
2018-Feb-17 23:30N 33°57' E 131°14'2 3.7
2018-Feb-17 23:00N 33°55' E 131°13'0 0.4
2018-Feb-17 22:30N 33°56' E 131°13'0 0.1
2018-Feb-17 22:00N 33°56' E 131°13'0 0.1
2018-Feb-17 21:30N 33°56' E 131°13'1 1.4
2018-Feb-17 21:00N 33°55' E 131°13'4 8.0
2018-Feb-17 20:30N 33°52' E 131°16'611.1
2018-Feb-17 20:00N 33°50' E 131°22'510.9
2018-Feb-17 19:30N 33°49' E 131°29'510.6
2018-Feb-17 18:59N 33°48' E 131°35'510.5
2018-Feb-17 18:30N 33°47' E 131°41'1610.4
2018-Feb-17 16:55N 33°46' E 132°01'2411.0
2018-Feb-17 14:47N 33°52' E 132°29'510.7
2018-Feb-17 14:20N 33°54' E 132°34'410.0
2018-Feb-17 13:56N 33°55' E 132°38'6 8.9
2018-Feb-17 13:18N 33°59' E 132°43'84 2.3
2018-Feb-16 00:39N 34°22' E 134°22'211.9
2018-Feb-16 00:29N 34°21' E 134°24'611.1
2018-Feb-15 23:59N 34°18' E 134°29'811.3
2018-Feb-15 23:19N 34°15' E 134°38'8 7.6
2018-Feb-15 22:13N 34°07' E 134°36'0 0.9
2018-Feb-15 21:59N 34°07' E 134°36'3 0.1
2018-Feb-14 17:45N 34°06' E 134°39'1 0.3
2018-Feb-14 14:57N 34°07' E 134°39'511.6
2018-Feb-14 14:30N 34°12' E 134°40'612.0
2018-Feb-14 14:00N 34°17' E 134°34'611.6
2018-Feb-14 13:29N 34°19' E 134°28'611.7
2018-Feb-14 13:00N 34°21' E 134°21'611.2
2018-Feb-14 12:26N 34°23' E 134°14'78 5.7
2018-Feb-13 22:46N 34°00' E 132°45'413.6
2018-Feb-13 22:30N 33°57' E 132°43'713.1
2018-Feb-13 21:58N 33°54' E 132°35'1012.3
2018-Feb-13 21:08N 33°50' E 132°24'212.7
2018-Feb-13 21:00N 33°50' E 132°22'812.1
2018-Feb-13 20:19N 33°50' E 132°12'711.8
2018-Feb-13 19:45N 33°46' E 132°05'311.2
2018-Feb-13 19:30N 33°46' E 132°01'611.4
2018-Feb-13 18:58N 33°46' E 131°54'511.4
2018-Feb-13 18:30N 33°47' E 131°48'611.4
2018-Feb-13 17:59N 33°48' E 131°41'611.4
2018-Feb-13 17:30N 33°49' E 131°34'611.7
2018-Feb-13 17:00N 33°50' E 131°27'611.7
2018-Feb-13 16:30N 33°51' E 131°21'612.0
2018-Feb-13 16:00N 33°53' E 131°14'612.4
2018-Feb-13 15:30N 33°56' E 131°07'612.2
2018-Feb-13 15:00N 33°58' E 131°01'612.2
2018-Feb-13 14:30N 33°54' E 130°55'611.0
2018-Feb-13 14:00N 33°58' E 130°50'611.8
2018-Feb-13 13:30N 33°58' E 130°43'611.7
2018-Feb-13 13:00N 33°57' E 130°36'611.5
2018-Feb-13 12:30N 33°55' E 130°29'611.9
2018-Feb-13 11:59N 33°51' E 130°24'611.6
2018-Feb-13 11:30N 33°47' E 130°19'  
2018-Feb-11 03:17N 33°35' E 129°56'410.0
2018-Feb-11 02:52N 33°37' E 130°01'4 9.7
2018-Feb-11 02:25N 33°38' E 130°06'4 9.2
2018-Feb-11 01:58N 33°41' E 130°10'4 9.5
2018-Feb-11 01:30N 33°43' E 130°14'5 9.4
2018-Feb-11 01:00N 33°46' E 130°18'5 9.6
2018-Feb-11 00:30N 33°50' E 130°23'5 9.5
2018-Feb-11 00:00N 33°53' E 130°27'4 8.0
2018-Feb-10 23:30N 33°56' E 130°30'4 7.9
2018-Feb-10 23:00N 33°57' E 130°34'4 7.8
2018-Feb-10 22:30N 33°57' E 130°39'4 8.1
2018-Feb-10 22:00N 33°58' E 130°44'4 8.1
2018-Feb-10 21:30N 33°58' E 130°49'5 9.5
2018-Feb-10 21:00N 33°55' E 130°53'4 8.7
2018-Feb-10 20:30N 33°58' E 130°58'5 9.4
2018-Feb-10 20:00N 33°57' E 131°03'510.2
2018-Feb-10 19:30N 33°54' E 131°08'5 9.8
2018-Feb-10 19:00N 33°52' E 131°13'510.3
2018-Feb-10 18:30N 33°51' E 131°19'610.5
2018-Feb-10 17:59N 33°50' E 131°26'510.3
2018-Feb-10 17:30N 33°49' E 131°32'510.3
2018-Feb-10 16:59N 33°48' E 131°38'510.6
2018-Feb-10 16:28N 33°47' E 131°45'1410.9
2018-Feb-10 15:08N 33°46' E 132°02'210.9
2018-Feb-10 14:58N 33°46' E 132°04'611.5
2018-Feb-10 14:27N 33°49' E 132°10'1611.2
2018-Feb-10 13:01N 33°52' E 132°29'111.6
2018-Feb-10 12:54N 33°52' E 132°31'511.3
2018-Feb-10 12:29N 33°54' E 132°36'611.7
2018-Feb-10 12:00N 33°57' E 132°42'  
Track history (hours):
 
Tides and Currents Weather Stations Pressure Air Temp Water Temp Dewpoint Dewpoint Depression Visibility Wind Speed Wind Dir Waves Ship Positions

Kumano Maru

Last reported at 2018-Feb-18 23:53 UTC. Time now 2018-Feb-19 00:14 UTC.
Position N 33°15' E 131°52'.

Length 65 m; draft 4 m.

MMSI: 431402029.

Date/timePositionNaut miles runAvg speedWind from/ knotsBaromVisibWave heightAir tempDewpointWater temp
2018-Feb-18 23:53N 33°15' E 131°52'0 0.0
2018-Feb-18 23:30N 33°15' E 131°52'0 0.0
2018-Feb-18 21:53N 33°15' E 131°52'3 6.8
2018-Feb-18 21:27N 33°18' E 131°50'510.7
2018-Feb-18 21:00N 33°20' E 131°46'4 6.3
2018-Feb-18 20:25N 33°23' E 131°42'0 0.1
2018-Feb-18 20:00N 33°23' E 131°42'0 0.0
2018-Feb-18 19:30N 33°23' E 131°42'0 0.0
2018-Feb-18 19:00N 33°23' E 131°42'0 0.0
2018-Feb-18 18:30N 33°23' E 131°42'0 0.0
2018-Feb-18 18:00N 33°23' E 131°42'0 0.0
2018-Feb-18 17:30N 33°23' E 131°42'0 0.1
2018-Feb-18 17:00N 33°23' E 131°42'0 0.0
2018-Feb-18 16:12N 33°23' E 131°42'0 0.0
2018-Feb-18 15:56N 33°23' E 131°42'0 0.0
2018-Feb-18 15:23N 33°23' E 131°42'0 0.0
2018-Feb-18 14:59N 33°23' E 131°42'0 0.0
2018-Feb-18 14:30N 33°23' E 131°42'0 0.0
2018-Feb-18 13:55N 33°23' E 131°42'0 0.0
2018-Feb-18 13:30N 33°23' E 131°42'0 0.1
2018-Feb-18 13:00N 33°23' E 131°42'0 0.1
2018-Feb-18 12:30N 33°23' E 131°42'0 0.0
2018-Feb-18 12:00N 33°23' E 131°42'0 0.1
2018-Feb-18 11:30N 33°23' E 131°42'0 0.0
2018-Feb-18 11:00N 33°23' E 131°42'0 0.0
2018-Feb-18 10:30N 33°23' E 131°42'0 0.0
2018-Feb-18 10:00N 33°23' E 131°42'0 0.0
2018-Feb-18 09:30N 33°23' E 131°42'0 0.0
2018-Feb-18 09:00N 33°23' E 131°42'0 0.0
2018-Feb-18 08:30N 33°23' E 131°42'0 0.0
2018-Feb-18 08:00N 33°23' E 131°42'7 9.6
2018-Feb-18 07:16N 33°29' E 131°46'412.2
2018-Feb-18 06:57N 33°33' E 131°46'512.4
2018-Feb-18 06:30N 33°38' E 131°44'612.8
2018-Feb-18 06:00N 33°42' E 131°38'612.0
2018-Feb-18 05:30N 33°45' E 131°31'612.1
2018-Feb-18 05:00N 33°48' E 131°25'611.8
2018-Feb-18 04:30N 33°51' E 131°19'611.4
2018-Feb-18 04:00N 33°55' E 131°13'2 3.7
2018-Feb-18 03:29N 33°56' E 131°14'1 1.1
2018-Feb-18 03:00N 33°57' E 131°14'0 0.1
2018-Feb-18 02:30N 33°57' E 131°14'0 0.0
2018-Feb-18 01:59N 33°57' E 131°14'0 0.0
2018-Feb-18 01:30N 33°57' E 131°14'0 0.0
2018-Feb-18 01:00N 33°57' E 131°14'0 0.0
2018-Feb-18 00:30N 33°57' E 131°14'0 0.0
2018-Feb-18 00:00N 33°57' E 131°14'0 0.0
2018-Feb-17 23:30N 33°57' E 131°14'2 3.7
2018-Feb-17 23:00N 33°55' E 131°13'0 0.4
2018-Feb-17 22:30N 33°56' E 131°13'0 0.1
2018-Feb-17 22:00N 33°56' E 131°13'0 0.1
2018-Feb-17 21:30N 33°56' E 131°13'1 1.4
2018-Feb-17 21:00N 33°55' E 131°13'4 8.0
2018-Feb-17 20:30N 33°52' E 131°16'611.1
2018-Feb-17 20:00N 33°50' E 131°22'510.9
2018-Feb-17 19:30N 33°49' E 131°29'510.6
2018-Feb-17 18:59N 33°48' E 131°35'510.5
2018-Feb-17 18:30N 33°47' E 131°41'1610.4
2018-Feb-17 16:55N 33°46' E 132°01'2411.0
2018-Feb-17 14:47N 33°52' E 132°29'510.7
2018-Feb-17 14:20N 33°54' E 132°34'410.0
2018-Feb-17 13:56N 33°55' E 132°38'6 8.9
2018-Feb-17 13:18N 33°59' E 132°43'84 2.3
2018-Feb-16 00:39N 34°22' E 134°22'211.9
2018-Feb-16 00:29N 34°21' E 134°24'611.1
2018-Feb-15 23:59N 34°18' E 134°29'811.3
2018-Feb-15 23:19N 34°15' E 134°38'8 7.6
2018-Feb-15 22:13N 34°07' E 134°36'0 0.9
2018-Feb-15 21:59N 34°07' E 134°36'3 0.1
2018-Feb-14 17:45N 34°06' E 134°39'1 0.3
2018-Feb-14 14:57N 34°07' E 134°39'511.6
2018-Feb-14 14:30N 34°12' E 134°40'612.0
2018-Feb-14 14:00N 34°17' E 134°34'611.6
2018-Feb-14 13:29N 34°19' E 134°28'611.7
2018-Feb-14 13:00N 34°21' E 134°21'611.2
2018-Feb-14 12:26N 34°23' E 134°14'78 5.7
2018-Feb-13 22:46N 34°00' E 132°45'413.6
2018-Feb-13 22:30N 33°57' E 132°43'713.1
2018-Feb-13 21:58N 33°54' E 132°35'1012.3
2018-Feb-13 21:08N 33°50' E 132°24'212.7
2018-Feb-13 21:00N 33°50' E 132°22'812.1
2018-Feb-13 20:19N 33°50' E 132°12'711.8
2018-Feb-13 19:45N 33°46' E 132°05'311.2
2018-Feb-13 19:30N 33°46' E 132°01'611.4
2018-Feb-13 18:58N 33°46' E 131°54'511.4
2018-Feb-13 18:30N 33°47' E 131°48'611.4
2018-Feb-13 17:59N 33°48' E 131°41'611.4
2018-Feb-13 17:30N 33°49' E 131°34'611.7
2018-Feb-13 17:00N 33°50' E 131°27'611.7
2018-Feb-13 16:30N 33°51' E 131°21'612.0
2018-Feb-13 16:00N 33°53' E 131°14'612.4
2018-Feb-13 15:30N 33°56' E 131°07'612.2
2018-Feb-13 15:00N 33°58' E 131°01'612.2
2018-Feb-13 14:30N 33°54' E 130°55'611.0
2018-Feb-13 14:00N 33°58' E 130°50'611.8
2018-Feb-13 13:30N 33°58' E 130°43'611.7
2018-Feb-13 13:00N 33°57' E 130°36'611.5
2018-Feb-13 12:30N 33°55' E 130°29'611.9
2018-Feb-13 11:59N 33°51' E 130°24'611.6
2018-Feb-13 11:30N 33°47' E 130°19'  
2018-Feb-11 03:17N 33°35' E 129°56'410.0
2018-Feb-11 02:52N 33°37' E 130°01'4 9.7
2018-Feb-11 02:25N 33°38' E 130°06'4 9.2
2018-Feb-11 01:58N 33°41' E 130°10'4 9.5
2018-Feb-11 01:30N 33°43' E 130°14'5 9.4
2018-Feb-11 01:00N 33°46' E 130°18'5 9.6
2018-Feb-11 00:30N 33°50' E 130°23'5 9.5
2018-Feb-11 00:00N 33°53' E 130°27'4 8.0
2018-Feb-10 23:30N 33°56' E 130°30'4 7.9
2018-Feb-10 23:00N 33°57' E 130°34'4 7.8
2018-Feb-10 22:30N 33°57' E 130°39'4 8.1
2018-Feb-10 22:00N 33°58' E 130°44'4 8.1
2018-Feb-10 21:30N 33°58' E 130°49'5 9.5
2018-Feb-10 21:00N 33°55' E 130°53'4 8.7
2018-Feb-10 20:30N 33°58' E 130°58'5 9.4
2018-Feb-10 20:00N 33°57' E 131°03'510.2
2018-Feb-10 19:30N 33°54' E 131°08'5 9.8
2018-Feb-10 19:00N 33°52' E 131°13'510.3
2018-Feb-10 18:30N 33°51' E 131°19'610.5
2018-Feb-10 17:59N 33°50' E 131°26'510.3
2018-Feb-10 17:30N 33°49' E 131°32'510.3
2018-Feb-10 16:59N 33°48' E 131°38'510.6
2018-Feb-10 16:28N 33°47' E 131°45'1410.9
2018-Feb-10 15:08N 33°46' E 132°02'210.9
2018-Feb-10 14:58N 33°46' E 132°04'611.5
2018-Feb-10 14:27N 33°49' E 132°10'1611.2
2018-Feb-10 13:01N 33°52' E 132°29'111.6
2018-Feb-10 12:54N 33°52' E 132°31'511.3
2018-Feb-10 12:29N 33°54' E 132°36'611.7
2018-Feb-10 12:00N 33°57' E 132°42'  

Dump ship's entire track history